createdAt,value
2022-09-17T00:01:31.407Z,8.16
2022-09-17T00:04:03.961Z,8.63
2022-09-17T00:06:33.070Z,8.28
2022-09-17T00:09:00.748Z,8.71
2022-09-17T00:11:30.598Z,8.98
2022-09-17T00:14:00.548Z,8.98
2022-09-17T00:16:32.327Z,9.05
2022-09-17T00:19:00.950Z,9.07
2022-09-17T00:21:29.267Z,8.86
2022-09-17T00:23:58.550Z,8.84
2022-09-17T00:26:26.899Z,8.28
2022-09-17T00:28:55.979Z,9.05
2022-09-17T00:31:25.452Z,9.04
2022-09-17T00:33:54.690Z,7.88
2022-09-17T00:36:23.308Z,9.07
2022-09-17T00:38:51.878Z,8.46
2022-09-17T00:41:20.099Z,8.51
2022-09-17T00:43:50.926Z,8.91
2022-09-17T00:46:32.592Z,8.84
2022-09-17T00:49:04.633Z,8.78
2022-09-17T00:51:37.051Z,8.83
2022-09-17T00:54:08.837Z,8.78
2022-09-17T00:56:39.846Z,8.58
2022-09-17T00:59:09.036Z,8.57
2022-09-17T01:01:37.428Z,8.77
2022-09-17T01:04:06.515Z,8.41
2022-09-17T01:06:41.429Z,8.18
2022-09-17T01:09:26.574Z,8.64
2022-09-17T01:12:13.166Z,8.56
2022-09-17T01:14:58.622Z,8.36
2022-09-17T01:17:32.753Z,8.74
2022-09-17T01:20:34.172Z,7.70
2022-09-17T01:23:23.757Z,8.15
2022-09-17T01:26:07.840Z,8.48
2022-09-17T01:28:43.332Z,8.53
2022-09-17T01:31:38.885Z,8.56
2022-09-17T01:34:20.914Z,7.83
2022-09-17T01:37:00.597Z,8.30
2022-09-17T01:39:46.584Z,8.59
2022-09-17T01:42:25.425Z,8.42
2022-09-17T01:45:00.249Z,8.15
2022-09-17T01:47:32.779Z,8.63
2022-09-17T01:50:04.472Z,8.58
2022-09-17T01:52:35.379Z,7.40
2022-09-17T01:55:06.956Z,7.69
2022-09-17T01:57:41.135Z,7.71
2022-09-17T02:00:12.000Z,8.49
2022-09-17T02:02:45.846Z,8.42
2022-09-17T02:05:19.027Z,7.89
2022-09-17T02:07:56.157Z,8.74
2022-09-17T02:10:29.544Z,8.48
2022-09-17T02:13:01.715Z,8.29
2022-09-17T02:15:35.311Z,7.82
2022-09-17T02:18:11.659Z,8.72
2022-09-17T02:20:44.567Z,7.95
2022-09-17T02:23:17.353Z,8.72
2022-09-17T02:25:50.688Z,7.78
2022-09-17T02:28:25.334Z,8.26
2022-09-17T02:30:53.166Z,8.54
2022-09-17T02:33:23.819Z,7.77
2022-09-17T02:35:51.626Z,8.68
2022-09-17T02:38:24.443Z,8.65
2022-09-17T02:40:58.828Z,7.96
2022-09-17T02:43:38.019Z,8.64
2022-09-17T02:46:25.634Z,8.38
2022-09-17T02:49:18.272Z,8.33
2022-09-17T02:51:52.991Z,8.38
2022-09-17T02:54:28.333Z,8.48
2022-09-17T02:57:08.717Z,7.96
2022-09-17T02:59:43.733Z,8.57
2022-09-17T03:02:21.579Z,8.48
2022-09-17T03:04:51.635Z,8.11
2022-09-17T03:07:20.940Z,8.46
2022-09-17T03:09:48.635Z,7.92
2022-09-17T03:12:17.436Z,8.40
2022-09-17T03:14:45.147Z,8.35
2022-09-17T03:17:14.856Z,8.30
2022-09-17T03:19:42.598Z,8.29
2022-09-17T03:22:12.489Z,8.10
2022-09-17T03:24:40.267Z,8.09
2022-09-17T03:27:08.025Z,8.07
2022-09-17T03:29:35.735Z,7.46
2022-09-17T03:32:03.633Z,8.10
2022-09-17T03:34:31.307Z,7.99
2022-09-17T03:36:58.967Z,8.08
2022-09-17T03:39:28.013Z,8.00
2022-09-17T03:41:55.673Z,7.97
2022-09-17T03:44:23.791Z,8.01
2022-09-17T03:46:51.667Z,7.89
2022-09-17T03:49:19.539Z,7.76
2022-09-17T03:51:47.227Z,7.24
2022-09-17T03:54:14.929Z,7.60
2022-09-17T03:56:44.260Z,7.63
2022-09-17T03:59:11.971Z,7.56
2022-09-17T04:01:39.793Z,7.49
2022-09-17T04:04:07.880Z,7.44
2022-09-17T04:06:35.763Z,6.96
2022-09-17T04:09:05.063Z,6.93
2022-09-17T04:11:32.766Z,6.71
2022-09-17T04:14:01.819Z,7.26
2022-09-17T04:16:29.604Z,6.75
2022-09-17T04:18:57.372Z,7.19
2022-09-17T04:21:25.075Z,6.98
2022-09-17T04:23:52.767Z,7.21
2022-09-17T04:26:20.449Z,6.98
2022-09-17T04:28:48.290Z,6.81
2022-09-17T04:31:17.519Z,6.75
2022-09-17T04:33:45.377Z,7.44
2022-09-17T04:36:13.067Z,6.91
2022-09-17T04:38:40.810Z,7.52
2022-09-17T04:41:09.328Z,7.55
2022-09-17T04:43:37.050Z,7.54
2022-09-17T04:46:05.008Z,7.27
2022-09-17T04:48:34.511Z,7.45
2022-09-17T04:51:02.198Z,7.44
2022-09-17T04:53:29.918Z,7.58
2022-09-17T04:55:58.462Z,7.58
2022-09-17T04:58:26.310Z,7.44
2022-09-17T05:00:54.236Z,7.06
2022-09-17T05:03:21.925Z,7.44
2022-09-17T05:05:50.975Z,7.51
2022-09-17T05:08:18.579Z,7.55
2022-09-17T05:10:46.205Z,7.60
2022-09-17T05:13:13.900Z,7.68
2022-09-17T05:15:41.633Z,7.76
2022-09-17T05:18:09.431Z,7.76
2022-09-17T05:20:37.187Z,7.65
2022-09-17T05:23:06.284Z,7.66
2022-09-17T05:25:34.055Z,7.42
2022-09-17T05:28:02.251Z,7.82
2022-09-17T05:30:30.249Z,7.84
2022-09-17T05:33:03.067Z,7.87
2022-09-17T05:35:31.316Z,7.92
2022-09-17T05:38:00.691Z,7.54
2022-09-17T05:40:30.854Z,7.73
2022-09-17T05:43:02.715Z,7.75
2022-09-17T05:45:31.086Z,7.93
2022-09-17T05:48:00.134Z,7.73
2022-09-17T05:50:29.402Z,7.97
2022-09-17T05:52:57.566Z,7.90
2022-09-17T05:55:25.505Z,7.87
2022-09-17T05:57:54.569Z,7.81
2022-09-17T06:00:22.531Z,7.70
2022-09-17T06:02:55.962Z,7.87
2022-09-17T06:05:23.649Z,7.87
2022-09-17T06:07:51.811Z,7.86
2022-09-17T06:10:19.530Z,7.98
2022-09-17T06:12:47.456Z,7.99
2022-09-17T06:15:16.556Z,8.10
2022-09-17T06:17:44.395Z,8.08
2022-09-17T06:20:12.064Z,8.10
2022-09-17T06:22:39.718Z,8.08
2022-09-17T06:25:08.169Z,8.13
2022-09-17T06:27:36.232Z,8.15
2022-09-17T06:30:04.902Z,7.94
2022-09-17T06:32:34.362Z,8.00
2022-09-17T06:35:03.291Z,7.82
2022-09-17T06:37:32.358Z,7.99
2022-09-17T06:40:00.745Z,8.04
2022-09-17T06:42:30.118Z,8.02
2022-09-17T06:45:00.357Z,8.13
2022-09-17T06:47:29.778Z,7.95
2022-09-17T06:49:59.863Z,7.89
2022-09-17T06:52:27.498Z,7.97
2022-09-17T06:54:55.243Z,8.02
2022-09-17T06:57:22.918Z,8.07
2022-09-17T06:59:51.892Z,8.25
2022-09-17T07:02:19.752Z,8.26
2022-09-17T07:04:47.482Z,7.99
2022-09-17T07:07:16.592Z,8.45
2022-09-17T07:09:44.202Z,8.54
2022-09-17T07:12:12.045Z,8.51
2022-09-17T07:14:39.771Z,8.18
2022-09-17T07:17:07.442Z,8.79
2022-09-17T07:19:35.115Z,8.88
2022-09-17T07:22:03.417Z,9.08
2022-09-17T07:24:33.122Z,9.11
2022-09-17T07:27:01.638Z,9.25
2022-09-17T07:29:29.335Z,9.20
2022-09-17T07:31:58.358Z,9.71
2022-09-17T07:34:28.058Z,10.13
2022-09-17T07:36:56.028Z,10.40
2022-09-17T07:39:23.743Z,10.37
2022-09-17T07:41:52.767Z,9.79
2022-09-17T07:44:22.446Z,10.13
2022-09-17T07:46:50.320Z,10.20
2022-09-17T07:49:18.074Z,10.61
2022-09-17T07:51:45.798Z,10.51
2022-09-17T07:54:14.029Z,10.29
2022-09-17T07:56:41.655Z,10.39
2022-09-17T07:59:11.810Z,10.09
2022-09-17T08:01:39.621Z,10.12
2022-09-17T08:04:08.168Z,9.86
2022-09-17T08:06:40.244Z,9.91
2022-09-17T08:09:09.897Z,9.79
2022-09-17T08:11:54.977Z,10.11
2022-09-17T08:14:29.117Z,10.23
2022-09-17T08:16:57.096Z,9.94
2022-09-17T08:19:25.462Z,9.88
2022-09-17T08:21:53.165Z,9.80
2022-09-17T08:24:20.886Z,9.94
2022-09-17T08:26:48.841Z,9.29
2022-09-17T08:29:16.665Z,9.63
2022-09-17T08:31:45.802Z,9.55
2022-09-17T08:34:14.390Z,9.82
2022-09-17T08:36:42.101Z,9.68
2022-09-17T08:39:12.033Z,9.64
2022-09-17T08:41:51.822Z,9.54
2022-09-17T08:44:25.993Z,9.49
2022-09-17T08:47:00.486Z,9.26
2022-09-17T08:49:35.173Z,9.32
2022-09-17T08:52:17.355Z,9.26
2022-09-17T08:54:55.455Z,9.28
2022-09-17T08:57:31.530Z,9.21
2022-09-17T09:00:04.640Z,9.23
2022-09-17T09:02:57.669Z,9.16
2022-09-17T09:05:33.199Z,9.09
2022-09-17T09:08:06.719Z,9.24
2022-09-17T09:10:44.310Z,9.27
2022-09-17T09:13:16.158Z,9.35
2022-09-17T09:15:48.275Z,9.35
2022-09-17T09:18:20.529Z,9.40
2022-09-17T09:20:53.532Z,9.40
2022-09-17T09:23:28.217Z,9.39
2022-09-17T09:26:04.547Z,9.16
2022-09-17T09:28:57.152Z,9.19
2022-09-17T09:31:49.508Z,9.52
2022-09-17T09:34:19.018Z,9.34
2022-09-17T09:36:47.357Z,9.42
2022-09-17T09:39:20.188Z,9.56
2022-09-17T09:41:54.222Z,9.63
2022-09-17T09:44:21.932Z,9.64
2022-09-17T09:47:12.388Z,9.55
2022-09-17T09:49:57.699Z,9.65
2022-09-17T09:52:41.924Z,9.65
2022-09-17T09:55:30.811Z,9.57
2022-09-17T09:58:10.003Z,9.47
2022-09-17T10:00:40.208Z,9.49
2022-09-17T10:03:16.166Z,9.28
2022-09-17T10:05:55.625Z,9.26
2022-09-17T10:08:24.362Z,9.23
2022-09-17T10:11:00.994Z,9.12
2022-09-17T10:13:31.286Z,9.17
2022-09-17T10:16:17.792Z,9.05
2022-09-17T10:18:46.219Z,9.00
2022-09-17T10:21:23.047Z,9.05
2022-09-17T10:23:51.719Z,9.00
2022-09-17T10:26:28.313Z,9.01
2022-09-17T10:28:57.685Z,9.05
2022-09-17T10:31:25.838Z,9.09
2022-09-17T10:33:58.488Z,8.91
2022-09-17T10:36:42.949Z,8.88
2022-09-17T10:39:34.129Z,8.99
2022-09-17T10:42:03.729Z,9.13
2022-09-17T10:44:32.828Z,9.11
2022-09-17T10:47:07.194Z,8.93
2022-09-17T10:49:42.511Z,8.97
2022-09-17T10:52:22.940Z,8.86
2022-09-17T10:55:13.105Z,8.94
2022-09-17T10:58:03.402Z,8.93
2022-09-17T11:00:42.680Z,8.84
2022-09-17T11:03:39.119Z,8.95
2022-09-17T11:06:41.498Z,8.95
2022-09-17T11:09:22.663Z,9.06
2022-09-17T11:12:02.968Z,9.20
2022-09-17T11:14:47.833Z,9.39
2022-09-17T11:17:32.345Z,9.50
2022-09-17T11:20:05.286Z,9.53
2022-09-17T11:22:48.740Z,9.68
2022-09-17T11:25:36.879Z,9.62
2022-09-17T11:28:17.340Z,9.52
2022-09-17T11:30:57.057Z,9.19
2022-09-17T11:33:52.852Z,8.98
2022-09-17T11:36:25.767Z,8.98
2022-09-17T11:38:56.746Z,9.09
2022-09-17T11:41:31.967Z,9.12
2022-09-17T11:44:09.567Z,9.20
2022-09-17T11:46:44.228Z,9.44
2022-09-17T11:49:23.239Z,9.49
2022-09-17T11:51:57.215Z,9.67
2022-09-17T11:54:29.336Z,9.75
2022-09-17T11:57:09.829Z,9.72
2022-09-17T11:59:44.565Z,9.78
2022-09-17T12:02:21.890Z,9.57
2022-09-17T12:04:59.588Z,9.47
2022-09-17T12:07:35.749Z,9.31
2022-09-17T12:10:21.927Z,9.14
2022-09-17T12:12:58.098Z,8.94
2022-09-17T12:15:29.084Z,8.83
2022-09-17T12:18:34.587Z,8.76
2022-09-17T12:21:06.040Z,9.01
2022-09-17T12:23:40.125Z,8.82
2022-09-17T12:26:21.862Z,9.11
2022-09-17T12:29:00.394Z,8.84
2022-09-17T12:31:38.269Z,9.01
2022-09-17T12:34:24.351Z,9.11
2022-09-17T12:36:58.585Z,8.99
2022-09-17T12:39:56.903Z,9.08
2022-09-17T12:42:37.511Z,9.04
2022-09-17T12:45:32.840Z,8.99
2022-09-17T12:48:26.111Z,8.99
2022-09-17T12:51:02.957Z,8.91
2022-09-17T12:53:36.894Z,8.85
2022-09-17T12:56:14.192Z,8.91
2022-09-17T12:58:55.787Z,8.98
2022-09-17T13:01:33.149Z,9.06
2022-09-17T13:04:15.704Z,9.08
2022-09-17T13:07:16.205Z,8.90
2022-09-17T13:10:01.072Z,8.86
2022-09-17T13:12:45.399Z,8.86
2022-09-17T13:15:48.125Z,8.81
2022-09-17T13:18:29.692Z,8.85
2022-09-17T13:21:05.467Z,8.95
2022-09-17T13:23:36.993Z,8.92
2022-09-17T13:26:06.773Z,8.98
2022-09-17T13:28:43.267Z,9.00
2022-09-17T13:31:14.516Z,9.07
2022-09-17T13:33:58.359Z,9.16
2022-09-17T13:36:48.518Z,9.16
2022-09-17T13:39:38.570Z,9.22
2022-09-17T13:42:10.798Z,9.08
2022-09-17T13:44:42.402Z,9.10
2022-09-17T13:47:29.440Z,9.37
2022-09-17T13:50:02.452Z,9.46
2022-09-17T13:52:42.035Z,9.67
2022-09-17T13:55:30.592Z,9.88
2022-09-17T13:57:58.978Z,10.00
2022-09-17T14:00:53.108Z,10.19
2022-09-17T14:03:56.853Z,10.15
2022-09-17T14:07:01.321Z,10.20
2022-09-17T14:09:39.301Z,10.15
2022-09-17T14:12:40.508Z,10.35
2022-09-17T14:15:36.038Z,10.44
2022-09-17T14:18:50.906Z,10.54
2022-09-17T14:21:26.902Z,10.39
2022-09-17T14:23:57.980Z,10.21
2022-09-17T14:26:44.689Z,10.17
2022-09-17T14:29:30.108Z,10.01
2022-09-17T14:31:59.948Z,10.10
2022-09-17T14:34:28.453Z,10.13
2022-09-17T14:36:57.803Z,10.02
2022-09-17T14:39:30.900Z,10.01
2022-09-17T14:42:01.690Z,9.78
2022-09-17T14:44:34.577Z,9.74
2022-09-17T14:47:04.677Z,9.75
2022-09-17T14:49:35.639Z,9.90
2022-09-17T14:52:19.176Z,9.96
2022-09-17T14:54:46.852Z,9.97
2022-09-17T14:57:27.941Z,9.95
2022-09-17T14:59:59.591Z,9.87
2022-09-17T15:02:35.155Z,9.91
2022-09-17T15:05:04.165Z,9.83
2022-09-17T15:07:31.886Z,9.98
2022-09-17T15:10:13.624Z,10.02
2022-09-17T15:12:45.010Z,10.04
2022-09-17T15:15:20.187Z,10.08
2022-09-17T15:17:49.714Z,9.92
2022-09-17T15:20:20.960Z,9.70
2022-09-17T15:22:56.796Z,9.61
2022-09-17T15:25:30.140Z,9.58
2022-09-17T15:28:05.242Z,9.42
2022-09-17T15:30:33.220Z,9.48
2022-09-17T15:33:01.977Z,9.41
2022-09-17T15:35:31.811Z,9.26
2022-09-17T15:40:50.476Z,9.18
2022-09-17T15:43:26.517Z,9.18
2022-09-17T15:45:55.459Z,9.28
2022-09-17T15:48:37.414Z,9.28
2022-09-17T15:51:07.894Z,9.25
2022-09-17T15:53:36.814Z,9.19
2022-09-17T15:56:08.545Z,9.21
2022-09-17T15:58:53.949Z,9.05
2022-09-17T16:01:51.869Z,9.16
2022-09-17T16:04:22.510Z,9.20
2022-09-17T16:07:18.551Z,9.18
2022-09-17T16:09:49.011Z,9.05
2022-09-17T16:12:19.670Z,9.11
2022-09-17T16:14:51.239Z,9.08
2022-09-17T16:17:28.031Z,9.02
2022-09-17T16:19:56.737Z,8.85
2022-09-17T16:22:29.504Z,9.08
2022-09-17T16:24:57.300Z,9.02
2022-09-17T16:27:30.021Z,8.93
2022-09-17T16:30:05.588Z,8.97
2022-09-17T16:32:33.259Z,9.05
2022-09-17T16:35:01.033Z,9.05
2022-09-17T16:37:28.705Z,8.99
2022-09-17T16:39:56.419Z,8.98
2022-09-17T16:42:24.382Z,8.81
2022-09-17T16:44:52.057Z,8.79
2022-09-17T16:47:21.066Z,8.93
2022-09-17T16:49:48.780Z,8.94
2022-09-17T16:52:16.402Z,8.90
2022-09-17T16:54:44.226Z,8.79
2022-09-17T16:57:13.938Z,8.82
2022-09-17T16:59:41.626Z,8.72
2022-09-17T17:02:10.417Z,8.69
2022-09-17T17:04:39.521Z,8.64
2022-09-17T17:07:07.212Z,8.62
2022-09-17T17:09:35.096Z,8.58
2022-09-17T17:12:03.168Z,8.51
2022-09-17T17:14:32.043Z,8.50
2022-09-17T17:16:59.839Z,8.31
2022-09-17T17:19:27.498Z,8.27
2022-09-17T17:21:56.524Z,8.25
2022-09-17T17:24:24.318Z,8.27
2022-09-17T17:26:52.021Z,7.96
2022-09-17T17:29:19.717Z,7.97
2022-09-17T17:31:49.536Z,8.11
2022-09-17T17:34:17.691Z,7.98
2022-09-17T17:36:45.436Z,7.79
2022-09-17T17:39:14.427Z,8.02
2022-09-17T17:41:42.159Z,8.03
2022-09-17T17:44:12.498Z,7.92
2022-09-17T17:46:40.650Z,7.93
2022-09-17T17:49:09.069Z,7.88
2022-09-17T17:51:37.038Z,7.82
2022-09-17T17:54:05.100Z,7.82
2022-09-17T17:56:34.142Z,7.62
2022-09-17T17:59:01.940Z,7.82
2022-09-17T18:01:31.440Z,7.76
2022-09-17T18:04:00.371Z,7.59
2022-09-17T18:06:28.956Z,7.63
2022-09-17T18:08:56.729Z,7.67
2022-09-17T18:11:24.914Z,7.61
2022-09-17T18:13:55.064Z,7.53
2022-09-17T18:16:24.130Z,7.66
2022-09-17T18:18:51.885Z,7.69
2022-09-17T18:21:22.343Z,7.58
2022-09-17T18:23:51.011Z,7.73
2022-09-17T18:26:20.227Z,7.77
2022-09-17T18:28:48.695Z,7.75
2022-09-17T18:31:22.736Z,7.70
2022-09-17T18:33:51.633Z,7.71
2022-09-17T18:36:19.257Z,7.62
2022-09-17T18:38:46.896Z,7.61
2022-09-17T18:41:14.624Z,7.67
2022-09-17T18:43:42.599Z,7.73
2022-09-17T18:46:10.713Z,7.62
2022-09-17T18:48:39.752Z,7.87
2022-09-17T18:51:09.396Z,7.78
2022-09-17T18:53:38.932Z,7.76
2022-09-17T18:56:12.906Z,7.75
2022-09-17T18:58:41.639Z,7.81
2022-09-17T19:01:09.708Z,7.67
2022-09-17T19:03:38.814Z,7.60
2022-09-17T19:06:08.901Z,7.86
2022-09-17T19:08:36.659Z,7.68
2022-09-17T19:11:05.258Z,7.64
2022-09-17T19:13:35.438Z,7.79
2022-09-17T19:16:05.621Z,7.79
2022-09-17T19:18:34.040Z,7.81
2022-09-17T19:21:04.034Z,7.82
2022-09-17T19:23:32.470Z,7.79
2022-09-17T19:26:07.099Z,7.86
2022-09-17T19:28:36.390Z,7.86
2022-09-17T19:31:05.598Z,7.75
2022-09-17T19:33:33.463Z,7.75
2022-09-17T19:36:07.011Z,7.70
2022-09-17T19:38:35.278Z,7.69
2022-09-17T19:41:07.299Z,7.72
2022-09-17T19:43:35.101Z,7.78
2022-09-17T19:46:03.229Z,7.81
2022-09-17T19:48:31.514Z,7.85
2022-09-17T19:50:59.568Z,7.90
2022-09-17T19:53:28.792Z,7.87
2022-09-17T19:55:56.761Z,7.87
2022-09-17T19:58:24.435Z,7.93
2022-09-17T20:00:56.145Z,7.95
2022-09-17T20:03:25.106Z,8.19
2022-09-17T20:05:59.910Z,8.14
2022-09-17T20:08:29.564Z,8.11
2022-09-17T20:10:57.580Z,8.20
2022-09-17T20:13:26.245Z,8.28
2022-09-17T20:15:53.947Z,8.11
2022-09-17T20:18:23.650Z,8.39
2022-09-17T20:20:53.496Z,8.38
2022-09-17T20:23:21.176Z,8.12
2022-09-17T20:25:53.795Z,8.03
2022-09-17T20:28:21.540Z,8.08
2022-09-17T20:30:49.251Z,8.02
2022-09-17T20:33:19.934Z,8.00
2022-09-17T20:35:50.015Z,7.85
2022-09-17T20:41:08.686Z,7.87
2022-09-17T20:43:37.924Z,7.72
2022-09-17T20:46:06.906Z,7.80
2022-09-17T20:48:35.777Z,7.70
2022-09-17T20:51:07.244Z,7.73
2022-09-17T20:53:37.193Z,7.70
2022-09-17T20:56:07.844Z,7.72
2022-09-17T20:58:39.498Z,7.71
2022-09-17T21:01:08.926Z,7.70
2022-09-17T21:03:37.586Z,7.53
2022-09-17T21:06:05.720Z,7.73
2022-09-17T21:08:33.490Z,7.69
2022-09-17T21:11:06.026Z,7.46
2022-09-17T21:13:33.731Z,7.40
2022-09-17T21:16:07.815Z,7.46
2022-09-17T21:18:39.570Z,7.50
2022-09-17T21:21:08.790Z,7.55
2022-09-17T21:23:37.962Z,7.45
2022-09-17T21:26:09.326Z,7.32
2022-09-17T21:28:37.477Z,7.30
2022-09-17T21:31:06.682Z,7.23
2022-09-17T21:33:34.683Z,7.25
2022-09-17T21:36:07.391Z,7.17
2022-09-17T21:38:35.285Z,7.12
2022-09-17T21:41:05.869Z,7.27
2022-09-17T21:43:36.211Z,7.03
2022-09-17T21:46:07.825Z,6.94
2022-09-17T21:48:37.087Z,6.81
2022-09-17T21:51:06.991Z,6.73
2022-09-17T21:53:35.763Z,6.76
2022-09-17T21:56:05.691Z,6.76
2022-09-17T21:58:35.228Z,6.53
2022-09-17T22:01:08.501Z,6.65
2022-09-17T22:03:36.934Z,6.60
2022-09-17T22:06:05.982Z,6.51
2022-09-17T22:08:34.432Z,6.66
2022-09-17T22:11:08.522Z,6.67
2022-09-17T22:13:38.135Z,6.62
2022-09-17T22:16:08.072Z,6.46
2022-09-17T22:18:37.741Z,6.59
2022-09-17T22:21:13.911Z,6.58
2022-09-17T22:23:41.589Z,6.44
2022-09-17T22:26:11.857Z,6.46
2022-09-17T22:28:40.940Z,6.41
2022-09-17T22:31:19.451Z,6.30
2022-09-17T22:33:51.318Z,6.39
2022-09-17T22:36:20.462Z,6.22
2022-09-17T22:38:50.756Z,6.25
2022-09-17T22:41:19.719Z,6.26
2022-09-17T22:43:48.866Z,6.24
2022-09-17T22:46:19.729Z,6.30
2022-09-17T22:48:48.181Z,6.14
2022-09-17T22:51:16.168Z,6.03
2022-09-17T22:53:44.500Z,6.14
2022-09-17T22:56:23.208Z,6.16
2022-09-17T22:58:52.841Z,5.95
2022-09-17T23:01:23.370Z,6.23
2022-09-17T23:03:53.393Z,6.28
2022-09-17T23:06:24.833Z,6.14
2022-09-17T23:08:52.558Z,6.31
2022-09-17T23:11:22.586Z,6.40
2022-09-17T23:13:52.519Z,6.45
2022-09-17T23:16:20.798Z,6.48
2022-09-17T23:18:48.587Z,6.46
2022-09-17T23:21:18.916Z,6.44
2022-09-17T23:23:48.293Z,6.44
2022-09-17T23:26:18.571Z,6.31
2022-09-17T23:28:46.403Z,6.30
2022-09-17T23:31:19.189Z,6.25
2022-09-17T23:33:47.530Z,6.33
2022-09-17T23:36:17.229Z,6.50
2022-09-17T23:38:46.365Z,6.41
2022-09-17T23:41:17.005Z,6.38
2022-09-17T23:43:47.667Z,6.52
2022-09-17T23:46:17.244Z,6.57
2022-09-17T23:48:45.541Z,6.46
2022-09-17T23:51:13.513Z,6.52
2022-09-17T23:53:41.412Z,6.60
2022-09-17T23:56:13.251Z,6.65
2022-09-17T23:58:41.234Z,6.40
